East Texas, Pennsylvania
Current Conditions -  °F | °C
As of 3:35 PM on Tuesday 21 Oct 2014 (Local Time) from KXLL Reporting Station
Broken Clouds Broken Clouds  
Wind Chill: 63°   Ceiling: 4700
Heat Index: 63°   Visibility: 10mi
Dew Point: 46°   Wind: 3mph
Humidity: 55%   Direction: 330°NNW
Pressure: 29.83"   Gusts: NA
Location:  40.55°N, 75.56°W
Report Text: KXLL 211935Z AUTO 33003KT 10SM BKN047 17/08 A2983 RMK AO2
Loading
Personal Weather Stations






























Interactive Weather Map
Tropical Storm Tracking
New forecast layout! Learn more

10-Day Weather Forecast

Advertisements
Track Severe Weather on mobile